sensor_id;sensor_type;location;lat;lon;timestamp;pressure;altitude;pressure_sealevel;temperature;humidity
33496;BME280;19836;55.812;37.560;2023-02-02T14:38:55;98743.63;;;2.46;62.79
33496;BME280;19836;55.812;37.560;2023-02-02T14:44:12;98740.91;;;2.49;62.96
33496;BME280;19836;55.812;37.560;2023-02-02T14:46:39;98744.47;;;2.48;63.28
33496;BME280;19836;55.812;37.560;2023-02-02T14:49:08;98743.63;;;2.46;63.17
33496;BME280;19836;55.812;37.560;2023-02-02T14:52:03;98744.47;;;2.46;63.37
33496;BME280;19836;55.812;37.560;2023-02-02T14:54:38;98750.69;;;2.44;63.44
33496;BME280;19836;55.812;37.560;2023-02-02T14:57:25;98743.56;;;2.49;63.67
33496;BME280;19836;55.812;37.560;2023-02-02T14:59:53;98759.41;;;2.49;63.32
33496;BME280;19836;55.812;37.560;2023-02-02T15:02:33;98752.41;;;2.45;63.60
33496;BME280;19836;55.812;37.560;2023-02-02T15:05:36;98754.13;;;2.49;63.62
33496;BME280;19836;55.812;37.560;2023-02-02T15:08:25;98763.00;;;2.45;63.31
33496;BME280;19836;55.812;37.560;2023-02-02T15:11:00;98755.97;;;2.44;63.61
33496;BME280;19836;55.812;37.560;2023-02-02T15:13:35;98758.59;;;2.44;63.97
33496;BME280;19836;55.812;37.560;2023-02-02T15:16:13;98755.06;;;2.46;63.99
33496;BME280;19836;55.812;37.560;2023-02-02T15:18:50;98765.63;;;2.46;64.14
33496;BME280;19836;55.812;37.560;2023-02-02T15:21:22;98757.66;;;2.51;64.05
33496;BME280;19836;55.812;37.560;2023-02-02T15:23:49;98759.41;;;2.49;63.94
33496;BME280;19836;55.812;37.560;2023-02-02T15:26:23;98762.03;;;2.50;64.03
33496;BME280;19836;55.812;37.560;2023-02-02T15:29:26;98750.66;;;2.47;64.12
33496;BME280;19836;55.812;37.560;2023-02-02T15:31:56;98764.78;;;2.43;64.25
33496;BME280;19836;55.812;37.560;2023-02-02T15:34:39;98759.53;;;2.40;64.26
33496;BME280;19836;55.812;37.560;2023-02-02T15:37:07;98764.78;;;2.44;64.39
33496;BME280;19836;55.812;37.560;2023-02-02T15:39:39;98765.63;;;2.46;64.55
33496;BME280;19836;55.812;37.560;2023-02-02T15:42:15;98773.53;;;2.49;64.38
33496;BME280;19836;55.812;37.560;2023-02-02T15:45:01;98771.81;;;2.44;64.40
33496;BME280;19836;55.812;37.560;2023-02-02T15:47:34;98773.66;;;2.39;64.56
33496;BME280;19836;55.812;37.560;2023-02-02T15:50:00;98778.03;;;2.40;64.59
33496;BME280;19836;55.812;37.560;2023-02-02T15:52:30;98773.66;;;2.39;64.64
33496;BME280;19836;55.812;37.560;2023-02-02T15:55:38;98787.78;;;2.36;64.92
33496;BME280;19836;55.812;37.560;2023-02-02T15:58:21;98789.50;;;2.39;64.81
33496;BME280;19836;55.812;37.560;2023-02-02T16:00:54;98783.38;;;2.38;64.62
33496;BME280;19836;55.812;37.560;2023-02-02T16:03:47;98783.31;;;2.41;64.85
33496;BME280;19836;55.812;37.560;2023-02-02T16:06:10;98775.28;;;2.49;64.99
33496;BME280;19836;55.812;37.560;2023-02-02T16:08:37;98784.94;;;2.51;65.01
33496;BME280;19836;55.812;37.560;2023-02-02T16:13:32;98789.41;;;2.48;64.88
33496;BME280;19836;55.812;37.560;2023-02-02T16:16:03;98786.84;;;2.43;65.01
33496;BME280;19836;55.812;37.560;2023-02-02T16:18:32;98785.06;;;2.42;65.08
33496;BME280;19836;55.812;37.560;2023-02-02T16:21:02;98779.81;;;2.41;64.95
33496;BME280;19836;55.812;37.560;2023-02-02T16:23:33;98786.03;;;2.38;65.05
33496;BME280;19836;55.812;37.560;2023-02-02T16:26:02;98782.50;;;2.38;65.08
33496;BME280;19836;55.812;37.560;2023-02-02T16:28:30;98785.13;;;2.38;65.22
33496;BME280;19836;55.812;37.560;2023-02-02T16:30:59;98785.94;;;2.43;65.29
33496;BME280;19836;55.812;37.560;2023-02-02T16:35:55;98793.69;;;2.55;65.50
33496;BME280;19836;55.812;37.560;2023-02-02T16:38:33;98796.38;;;2.53;65.19
33496;BME280;19836;55.812;37.560;2023-02-02T16:41:05;98807.94;;;2.45;65.12
33496;BME280;19836;55.812;37.560;2023-02-02T16:43:32;98800.88;;;2.45;65.39
33496;BME280;19836;55.812;37.560;2023-02-02T16:46:02;98807.91;;;2.46;65.39
33496;BME280;19836;55.812;37.560;2023-02-02T16:48:38;98807.91;;;2.48;65.34
33496;BME280;19836;55.812;37.560;2023-02-02T16:56:28;98811.44;;;2.48;65.32
33496;BME280;19836;55.812;37.560;2023-02-02T16:58:55;98814.88;;;2.53;65.49
33496;BME280;19836;55.812;37.560;2023-02-02T17:01:43;98817.47;;;2.56;65.43
33496;BME280;19836;55.812;37.560;2023-02-02T17:04:31;98826.22;;;2.60;65.65
33496;BME280;19836;55.812;37.560;2023-02-02T17:07:08;98813.91;;;2.59;65.31
33496;BME280;19836;55.812;37.560;2023-02-02T17:09:40;98819.28;;;2.53;65.42
33496;BME280;19836;55.812;37.560;2023-02-02T17:14:58;98826.31;;;2.54;65.47
33496;BME280;19836;55.812;37.560;2023-02-02T17:17:26;98828.13;;;2.52;65.54
33496;BME280;19836;55.812;37.560;2023-02-02T17:19:52;98829.88;;;2.50;65.45
33496;BME280;19836;55.812;37.560;2023-02-02T17:22:20;98830.78;;;2.50;65.61
33496;BME280;19836;55.812;37.560;2023-02-02T17:24:49;98832.53;;;2.50;65.67
33496;BME280;19836;55.812;37.560;2023-02-02T17:27:20;98831.72;;;2.45;65.40
33496;BME280;19836;55.812;37.560;2023-02-02T17:29:50;98833.53;;;2.40;65.92
33496;BME280;19836;55.812;37.560;2023-02-02T17:32:16;98829.97;;;2.44;65.88
33496;BME280;19836;55.812;37.560;2023-02-02T17:34:42;98836.97;;;2.48;65.69
33496;BME280;19836;55.812;37.560;2023-02-02T17:37:08;98833.50;;;2.44;65.70
33496;BME280;19836;55.812;37.560;2023-02-02T17:39:34;98838.81;;;2.40;65.89
33496;BME280;19836;55.812;37.560;2023-02-02T17:42:00;98848.56;;;2.38;65.72
33496;BME280;19836;55.812;37.560;2023-02-02T17:44:25;98841.53;;;2.35;65.90
33496;BME280;19836;55.812;37.560;2023-02-02T17:46:51;98841.56;;;2.34;66.01
33496;BME280;19836;55.812;37.560;2023-02-02T17:49:17;98846.81;;;2.35;65.74
33496;BME280;19836;55.812;37.560;2023-02-02T17:51:44;98836.25;;;2.35;65.97
33496;BME280;19836;55.812;37.560;2023-02-02T17:54:12;98843.38;;;2.29;65.89
33496;BME280;19836;55.812;37.560;2023-02-02T17:56:39;98845.16;;;2.28;66.11
33496;BME280;19836;55.812;37.560;2023-02-02T17:59:05;98842.47;;;2.30;65.96
33496;BME280;19836;55.812;37.560;2023-02-02T18:01:33;98855.69;;;2.31;66.30
33496;BME280;19836;55.812;37.560;2023-02-02T18:04:00;98853.00;;;2.36;66.25
33496;BME280;19836;55.812;37.560;2023-02-02T18:06:26;98844.09;;;2.41;66.20
33496;BME280;19836;55.812;37.560;2023-02-02T18:08:52;98845.00;;;2.39;66.37
33496;BME280;19836;55.812;37.560;2023-02-02T18:11:18;98845.84;;;2.44;66.28
33496;BME280;19836;55.812;37.560;2023-02-02T18:13:44;98849.28;;;2.49;66.45
33496;BME280;19836;55.812;37.560;2023-02-02T18:16:11;98851.09;;;2.48;66.29
33496;BME280;19836;55.812;37.560;2023-02-02T18:18:37;98853.75;;;2.47;66.53
33496;BME280;19836;55.812;37.560;2023-02-02T18:21:09;98852.88;;;2.45;66.36
33496;BME280;19836;55.812;37.560;2023-02-02T18:23:35;98851.09;;;2.48;66.47
33496;BME280;19836;55.812;37.560;2023-02-02T18:26:13;98846.66;;;2.49;66.33
33496;BME280;19836;55.812;37.560;2023-02-02T18:28:51;98853.72;;;2.48;66.33
33496;BME280;19836;55.812;37.560;2023-02-02T18:31:21;98859.97;;;2.40;66.40
33496;BME280;19836;55.812;37.560;2023-02-02T18:33:48;98849.56;;;2.28;66.41
33496;BME280;19836;55.812;37.560;2023-02-02T18:36:16;98845.25;;;2.21;66.38
33496;BME280;19836;55.812;37.560;2023-02-02T18:38:46;98844.44;;;2.16;66.74
33496;BME280;19836;55.812;37.560;2023-02-02T18:41:14;98848.84;;;2.14;66.93
33496;BME280;19836;55.812;37.560;2023-02-02T18:43:41;98851.47;;;2.14;67.00
33496;BME280;19836;55.812;37.560;2023-02-02T18:46:10;98856.81;;;2.09;67.34
33496;BME280;19836;55.812;37.560;2023-02-02T18:48:37;98863.78;;;2.15;67.26
33496;BME280;19836;55.812;37.560;2023-02-02T18:51:09;98855.00;;;2.16;67.42
33496;BME280;19836;55.812;37.560;2023-02-02T18:53:35;98849.72;;;2.16;67.52
33496;BME280;19836;55.812;37.560;2023-02-02T18:56:05;98854.09;;;2.18;67.42
33496;BME280;19836;55.812;37.560;2023-02-02T18:58:34;98853.19;;;2.19;67.72
33496;BME280;19836;55.812;37.560;2023-02-02T19:01:15;98868.16;;;2.20;67.87
33496;BME280;19836;55.812;37.560;2023-02-02T19:03:41;98861.97;;;2.20;67.91
33496;BME280;19836;55.812;37.560;2023-02-02T19:06:08;98864.63;;;2.20;68.06
33496;BME280;19836;55.812;37.560;2023-02-02T19:08:54;98861.97;;;2.20;68.09
33496;BME280;19836;55.812;37.560;2023-02-02T19:11:21;98853.19;;;2.18;68.13
33496;BME280;19836;55.812;37.560;2023-02-02T19:13:48;98853.28;;;2.12;68.17
33496;BME280;19836;55.812;37.560;2023-02-02T19:16:26;98862.13;;;2.05;68.29
33496;BME280;19836;55.812;37.560;2023-02-02T19:18:56;98861.38;;;1.97;68.43
33496;BME280;19836;55.812;37.560;2023-02-02T19:21:22;98867.47;;;2.00;68.70
33496;BME280;19836;55.812;37.560;2023-02-02T19:23:48;98864.88;;;1.97;68.53
33496;BME280;19836;55.812;37.560;2023-02-02T19:26:22;98863.22;;;1.87;68.76
33496;BME280;19836;55.812;37.560;2023-02-02T19:28:50;98864.97;;;1.88;68.88
33496;BME280;19836;55.812;37.560;2023-02-02T19:31:20;98859.66;;;1.91;69.22
33496;BME280;19836;55.812;37.560;2023-02-02T19:33:50;98858.75;;;1.94;69.51
33496;BME280;19836;55.812;37.560;2023-02-02T19:36:22;98856.91;;;2.02;69.41
33496;BME280;19836;55.812;37.560;2023-02-02T19:38:51;98860.41;;;2.04;69.49
33496;BME280;19836;55.812;37.560;2023-02-02T19:41:23;98864.88;;;1.97;69.49
33496;BME280;19836;55.812;37.560;2023-02-02T19:43:58;98860.47;;;1.95;69.54
33496;BME280;19836;55.812;37.560;2023-02-02T19:46:26;98864.94;;;1.93;69.84
33496;BME280;19836;55.812;37.560;2023-02-02T19:49:10;98862.28;;;1.91;69.97
33496;BME280;19836;55.812;37.560;2023-02-02T19:54:41;98878.03;;;2.02;69.92
33496;BME280;19836;55.812;37.560;2023-02-02T19:59:39;98883.28;;;2.05;70.19
33496;BME280;19836;55.812;37.560;2023-02-02T20:05:21;98879.69;;;2.12;70.38
33496;BME280;19836;55.812;37.560;2023-02-02T20:07:54;98876.16;;;2.13;70.44
33496;BME280;19836;55.812;37.560;2023-02-02T20:10:27;98872.63;;;2.14;70.30
33496;BME280;19836;55.812;37.560;2023-02-02T20:12:55;98872.59;;;2.17;70.57
33496;BME280;19836;55.812;37.560;2023-02-02T20:15:31;98864.63;;;2.20;70.55
33496;BME280;19836;55.812;37.560;2023-02-02T20:18:00;98872.59;;;2.17;70.46
33496;BME280;19836;55.812;37.560;2023-02-02T20:20:51;98864.75;;;2.08;70.44
33496;BME280;19836;55.812;37.560;2023-02-02T20:25:57;98885.06;;;2.03;70.83
33496;BME280;19836;55.812;37.560;2023-02-02T20:28:43;98871.03;;;1.98;70.42
33496;BME280;19836;55.812;37.560;2023-02-02T20:31:13;98879.03;;;1.92;70.78
33496;BME280;19836;55.812;37.560;2023-02-02T20:33:45;98883.41;;;1.94;70.86
33496;BME280;19836;55.812;37.560;2023-02-02T20:36:22;98887.78;;;1.97;71.01
33496;BME280;19836;55.812;37.560;2023-02-02T20:38:51;98880.75;;;1.94;71.04
33496;BME280;19836;55.812;37.560;2023-02-02T20:41:17;98871.94;;;1.95;70.98
33496;BME280;19836;55.812;37.560;2023-02-02T20:43:43;98879.03;;;1.92;71.08
33496;BME280;19836;55.812;37.560;2023-02-02T20:46:13;98880.81;;;1.88;71.22
33496;BME280;19836;55.812;37.560;2023-02-02T20:48:40;98875.56;;;1.87;71.25
33496;BME280;19836;55.812;37.560;2023-02-02T20:51:06;98873.84;;;1.81;71.42
33496;BME280;19836;55.812;37.560;2023-02-02T20:53:32;98885.44;;;1.67;71.53
33496;BME280;19836;55.812;37.560;2023-02-02T20:56:00;98880.22;;;1.61;72.02
33496;BME280;19836;55.812;37.560;2023-02-02T20:58:27;98889.94;;;1.53;71.98
33496;BME280;19836;55.812;37.560;2023-02-02T21:00:53;98892.63;;;1.47;72.32
33496;BME280;19836;55.812;37.560;2023-02-02T21:03:19;98893.47;;;1.49;72.06
33496;BME280;19836;55.812;37.560;2023-02-02T21:05:45;98889.03;;;1.57;72.10
33496;BME280;19836;55.812;37.560;2023-02-02T21:08:11;98886.34;;;1.60;72.22
33496;BME280;19836;55.812;37.560;2023-02-02T21:10:37;98888.09;;;1.62;72.45
33496;BME280;19836;55.812;37.560;2023-02-02T21:13:03;98895.16;;;1.60;72.43
33496;BME280;19836;55.812;37.560;2023-02-02T21:15:29;98893.38;;;1.62;72.37
33496;BME280;19836;55.812;37.560;2023-02-02T21:17:54;98883.69;;;1.63;72.65
33496;BME280;19836;55.812;37.560;2023-02-02T21:20:20;98882.78;;;1.65;72.53
33496;BME280;19836;55.812;37.560;2023-02-02T21:22:46;98886.31;;;1.66;72.43
33496;BME280;19836;55.812;37.560;2023-02-02T21:25:12;98890.66;;;1.70;72.26
33496;BME280;19836;55.812;37.560;2023-02-02T21:27:39;98880.06;;;1.74;72.64
33496;BME280;19836;55.812;37.560;2023-02-02T21:30:09;98887.09;;;1.78;72.60
33496;BME280;19836;55.812;37.560;2023-02-02T21:32:36;98899.41;;;1.78;72.27
33496;BME280;19836;55.812;37.560;2023-02-02T21:35:03;98888.00;;;1.71;72.34
33496;BME280;19836;55.812;37.560;2023-02-02T21:37:31;98888.00;;;1.71;72.27
33496;BME280;19836;55.812;37.560;2023-02-02T21:39:58;98895.03;;;1.74;72.25
33496;BME280;19836;55.812;37.560;2023-02-02T21:42:25;98893.28;;;1.74;72.29
33496;BME280;19836;55.812;37.560;2023-02-02T21:45:01;98893.28;;;1.74;72.15
33496;BME280;19836;55.812;37.560;2023-02-02T21:47:34;98894.19;;;1.70;72.08
33496;BME280;19836;55.812;37.560;2023-02-02T21:50:14;98891.53;;;1.72;72.12
33496;BME280;19836;55.812;37.560;2023-02-02T21:52:41;98890.63;;;1.76;72.07
33496;BME280;19836;55.812;37.560;2023-02-02T21:55:35;98886.13;;;1.82;72.50
33496;BME280;19836;55.812;37.560;2023-02-02T22:00:45;98890.66;;;1.71;71.99
33496;BME280;19836;55.812;37.560;2023-02-02T22:03:31;98899.47;;;1.72;72.30
33496;BME280;19836;55.812;37.560;2023-02-02T22:06:20;98894.19;;;1.69;72.12
33496;BME280;19836;55.812;37.560;2023-02-02T22:08:47;98900.38;;;1.68;72.03
33496;BME280;19836;55.812;37.560;2023-02-02T22:11:27;98905.66;;;1.68;72.18
33496;BME280;19836;55.812;37.560;2023-02-02T22:16:49;98899.53;;;1.60;71.91
33496;BME280;19836;55.812;37.560;2023-02-02T22:22:19;98905.72;;;1.57;72.08
33496;BME280;19836;55.812;37.560;2023-02-02T22:24:58;98907.44;;;1.64;72.10
33496;BME280;19836;55.812;37.560;2023-02-02T22:27:26;98903.00;;;1.68;72.37
33496;BME280;19836;55.812;37.560;2023-02-02T22:30:16;98897.72;;;1.71;71.93
33496;BME280;19836;55.812;37.560;2023-02-02T22:32:45;98902.09;;;1.72;71.98
33496;BME280;19836;55.812;37.560;2023-02-02T22:35:11;98900.28;;;1.78;72.20
33496;BME280;19836;55.812;37.560;2023-02-02T22:37:37;98901.16;;;1.79;72.05
33496;BME280;19836;55.812;37.560;2023-02-02T22:40:03;98898.56;;;1.76;72.13
33496;BME280;19836;55.812;37.560;2023-02-02T22:42:29;98900.34;;;1.71;72.11
33496;BME280;19836;55.812;37.560;2023-02-02T22:44:55;98904.75;;;1.70;72.33
33496;BME280;19836;55.812;37.560;2023-02-02T22:47:21;98897.66;;;1.74;72.02
33496;BME280;19836;55.812;37.560;2023-02-02T22:49:47;98904.69;;;1.76;72.39
33496;BME280;19836;55.812;37.560;2023-02-02T22:52:13;98904.66;;;1.79;72.35
33496;BME280;19836;55.812;37.560;2023-02-02T22:54:38;98908.16;;;1.80;72.19
33496;BME280;19836;55.812;37.560;2023-02-02T22:57:04;98903.84;;;1.76;72.40
33496;BME280;19836;55.812;37.560;2023-02-02T22:59:30;98905.59;;;1.75;72.31
33496;BME280;19836;55.812;37.560;2023-02-02T23:01:56;98899.41;;;1.75;72.43
33496;BME280;19836;55.812;37.560;2023-02-02T23:04:22;98904.69;;;1.75;72.23
33496;BME280;19836;55.812;37.560;2023-02-02T23:06:48;98899.41;;;1.75;72.42
33496;BME280;19836;55.812;37.560;2023-02-02T23:09:14;98902.03;;;1.81;72.39
33496;BME280;19836;55.812;37.560;2023-02-02T23:11:40;98891.41;;;1.82;72.45
33496;BME280;19836;55.812;37.560;2023-02-02T23:14:06;98895.88;;;1.79;72.27
33496;BME280;19836;55.812;37.560;2023-02-02T23:16:32;98895.88;;;1.77;72.34
33496;BME280;19836;55.812;37.560;2023-02-02T23:18:58;98895.88;;;1.79;72.03
33496;BME280;19836;55.812;37.560;2023-02-02T23:21:24;98902.03;;;1.81;72.32
33496;BME280;19836;55.812;37.560;2023-02-02T23:23:50;98890.63;;;1.74;72.11
33496;BME280;19836;55.812;37.560;2023-02-02T23:26:15;98902.94;;;1.74;72.15
33496;BME280;19836;55.812;37.560;2023-02-02T23:28:41;98887.94;;;1.79;72.33
33496;BME280;19836;55.812;37.560;2023-02-02T23:31:07;98890.50;;;1.85;72.16
33496;BME280;19836;55.812;37.560;2023-02-02T23:33:33;98886.13;;;1.87;72.31
33496;BME280;19836;55.812;37.560;2023-02-02T23:35:59;98885.22;;;1.88;71.83
33496;BME280;19836;55.812;37.560;2023-02-02T23:38:25;98886.09;;;1.88;72.06
33496;BME280;19836;55.812;37.560;2023-02-02T23:40:51;98881.72;;;1.86;72.15
33496;BME280;19836;55.812;37.560;2023-02-02T23:43:17;98887.91;;;1.83;72.41
33496;BME280;19836;55.812;37.560;2023-02-02T23:45:42;98892.28;;;1.86;71.93
33496;BME280;19836;55.812;37.560;2023-02-02T23:48:08;98890.50;;;1.88;71.89
33496;BME280;19836;55.812;37.560;2023-02-02T23:50:35;98887.84;;;1.89;72.29
33496;BME280;19836;55.812;37.560;2023-02-02T23:53:05;98886.97;;;1.87;72.24
33496;BME280;19836;55.812;37.560;2023-02-02T23:55:32;98890.50;;;1.88;72.18
33496;BME280;19836;55.812;37.560;2023-02-02T23:57:58;98886.06;;;1.91;72.54
